createdAt,value
2023-02-04T00:00:23.581Z,84.29
2023-02-04T00:02:26.352Z,82.62
2023-02-04T00:04:29.048Z,83.45
2023-02-04T00:06:31.745Z,84.04
2023-02-04T00:08:34.296Z,82.60
2023-02-04T00:10:37.861Z,82.78
2023-02-04T00:12:40.399Z,83.33
2023-02-04T00:14:43.018Z,83.57
2023-02-04T00:16:46.898Z,83.72
2023-02-04T00:18:49.431Z,83.22
2023-02-04T00:20:51.987Z,83.63
2023-02-04T00:22:54.981Z,84.30
2023-02-04T00:24:57.534Z,84.10
2023-02-04T00:27:00.115Z,84.48
2023-02-04T00:29:02.735Z,84.63
2023-02-04T00:31:05.463Z,84.67
2023-02-04T00:33:09.383Z,84.78
2023-02-04T00:35:12.119Z,84.07
2023-02-04T00:37:14.645Z,84.79
2023-02-04T00:39:17.390Z,84.16
2023-02-04T00:41:20.253Z,84.86
2023-02-04T00:43:22.826Z,84.43
2023-02-04T00:45:25.504Z,84.93
2023-02-04T00:47:28.103Z,85.19
2023-02-04T00:49:32.164Z,85.33
2023-02-04T00:51:35.155Z,84.83
2023-02-04T00:53:37.763Z,84.62
2023-02-04T00:55:40.361Z,84.67
2023-02-04T00:57:42.928Z,85.03
2023-02-04T00:59:45.555Z,84.59
2023-02-04T01:01:48.259Z,84.69
2023-02-04T01:03:50.827Z,84.63
2023-02-04T01:05:54.819Z,85.33
2023-02-04T01:07:57.419Z,85.67
2023-02-04T01:10:00.009Z,84.97
2023-02-04T01:12:02.740Z,85.35
2023-02-04T01:14:05.346Z,85.01
2023-02-04T01:16:07.932Z,85.00
2023-02-04T01:18:10.493Z,85.61
2023-02-04T01:20:13.583Z,86.03
2023-02-04T01:22:17.512Z,85.36
2023-02-04T01:24:20.168Z,85.96
2023-02-04T01:26:23.095Z,86.08
2023-02-04T01:28:25.747Z,85.76
2023-02-04T01:30:28.424Z,85.92
2023-02-04T01:32:31.065Z,86.43
2023-02-04T01:34:33.629Z,86.49
2023-02-04T01:36:36.194Z,86.38
2023-02-04T01:38:40.166Z,85.84
2023-02-04T01:40:43.231Z,85.65
2023-02-04T01:42:45.885Z,85.56
2023-02-04T01:44:48.976Z,85.41
2023-02-04T01:46:51.565Z,85.64
2023-02-04T01:48:54.179Z,85.41
2023-02-04T01:51:04.160Z,85.87
2023-02-04T01:53:07.032Z,85.91
2023-02-04T01:55:17.908Z,86.46
2023-02-04T01:57:20.648Z,86.62
2023-02-04T01:59:24.254Z,86.54
2023-02-04T02:01:39.112Z,86.67
2023-02-04T02:03:41.799Z,85.93
2023-02-04T02:05:46.433Z,85.56
2023-02-04T02:07:50.247Z,86.20
2023-02-04T02:09:52.857Z,86.57
2023-02-04T02:11:56.858Z,86.19
2023-02-04T02:13:59.533Z,85.94
2023-02-04T02:16:02.126Z,86.03
2023-02-04T02:18:05.055Z,86.86
2023-02-04T02:20:08.733Z,86.31
2023-02-04T02:22:16.473Z,86.83
2023-02-04T02:24:29.116Z,87.45
2023-02-04T02:26:31.703Z,87.86
2023-02-04T02:28:34.296Z,88.17
2023-02-04T02:30:37.313Z,88.42
2023-02-04T02:32:40.332Z,88.45
2023-02-04T02:34:44.423Z,88.61
2023-02-04T02:36:47.094Z,88.54
2023-02-04T02:38:49.692Z,88.59
2023-02-04T02:40:54.002Z,88.76
2023-02-04T02:42:56.692Z,89.05
2023-02-04T02:45:00.176Z,88.94
2023-02-04T02:47:02.886Z,88.92
2023-02-04T02:49:05.644Z,89.11
2023-02-04T02:51:08.337Z,89.07
2023-02-04T02:53:12.788Z,89.27
2023-02-04T02:55:17.701Z,89.30
2023-02-04T02:57:23.950Z,89.17
2023-02-04T02:59:30.028Z,89.15
2023-02-04T03:01:32.688Z,89.00
2023-02-04T03:03:37.377Z,89.09
2023-02-04T03:05:43.109Z,89.00
2023-02-04T03:07:45.762Z,88.91
2023-02-04T03:09:48.553Z,88.94
2023-02-04T03:11:51.177Z,89.04
2023-02-04T03:13:55.245Z,88.52
2023-02-04T03:15:58.677Z,88.19
2023-02-04T03:18:01.930Z,88.40
2023-02-04T03:20:05.540Z,88.62
2023-02-04T03:22:08.832Z,88.51
2023-02-04T03:24:11.457Z,88.50
2023-02-04T03:26:14.081Z,88.29
2023-02-04T03:28:16.767Z,88.44
2023-02-04T03:30:21.258Z,88.35
2023-02-04T03:32:23.920Z,88.11
2023-02-04T03:34:26.918Z,88.55
2023-02-04T03:36:29.537Z,88.37
2023-02-04T03:38:33.840Z,88.49
2023-02-04T03:40:36.525Z,88.45
2023-02-04T03:42:39.178Z,88.62
2023-02-04T03:44:41.767Z,88.53
2023-02-04T03:46:45.772Z,88.51
2023-02-04T03:48:48.348Z,88.49
2023-02-04T03:50:50.925Z,88.44
2023-02-04T03:52:53.829Z,88.53
2023-02-04T03:54:56.418Z,88.62
2023-02-04T03:56:58.943Z,88.35
2023-02-04T03:59:01.540Z,88.48
2023-02-04T04:01:04.116Z,88.37
2023-02-04T04:03:08.053Z,88.64
2023-02-04T04:05:11.677Z,88.60
2023-02-04T04:07:14.278Z,88.43
2023-02-04T04:09:16.855Z,88.39
2023-02-04T04:11:19.515Z,88.25
2023-02-04T04:13:22.095Z,88.40
2023-02-04T04:15:25.874Z,88.40
2023-02-04T04:17:28.446Z,88.19
2023-02-04T04:19:33.170Z,88.22
2023-02-04T04:21:35.759Z,88.25
2023-02-04T04:23:38.954Z,88.24
2023-02-04T04:25:41.578Z,88.19
2023-02-04T04:27:44.333Z,88.26
2023-02-04T04:29:46.909Z,88.48
2023-02-04T04:31:49.672Z,88.25
2023-02-04T04:33:52.286Z,88.30
2023-02-04T04:35:56.180Z,88.04
2023-02-04T04:37:58.769Z,88.14
2023-02-04T04:40:01.716Z,87.74
2023-02-04T04:42:04.360Z,87.72
2023-02-04T04:44:07.425Z,87.82
2023-02-04T04:46:09.983Z,87.78
2023-02-04T04:48:12.750Z,87.57
2023-02-04T04:50:15.351Z,87.75
2023-02-04T04:52:19.286Z,87.38
2023-02-04T04:54:21.835Z,87.47
2023-02-04T04:56:24.399Z,87.46
2023-02-04T04:58:26.960Z,87.42
2023-02-04T05:00:29.771Z,87.17
2023-02-04T05:02:32.441Z,87.16
2023-02-04T05:04:35.060Z,86.92
2023-02-04T05:06:37.689Z,86.75
2023-02-04T05:08:41.644Z,86.72
2023-02-04T05:10:45.632Z,86.49
2023-02-04T05:12:48.217Z,86.47
2023-02-04T05:14:50.771Z,86.46
2023-02-04T05:16:53.367Z,86.38
2023-02-04T05:18:55.937Z,85.95
2023-02-04T05:20:58.526Z,84.99
2023-02-04T05:23:02.261Z,85.00
2023-02-04T05:25:08.028Z,85.37
2023-02-04T05:27:10.592Z,85.12
2023-02-04T05:29:13.159Z,85.27
2023-02-04T05:31:15.843Z,85.15
2023-02-04T05:33:18.547Z,84.95
2023-02-04T05:35:21.634Z,84.49
2023-02-04T05:37:24.175Z,84.41
2023-02-04T05:39:26.738Z,84.45
2023-02-04T05:41:30.596Z,84.60
2023-02-04T05:43:33.161Z,84.64
2023-02-04T05:45:35.822Z,84.68
2023-02-04T05:47:38.414Z,84.88
2023-02-04T05:49:40.980Z,84.95
2023-02-04T05:51:46.229Z,84.94
2023-02-04T05:53:48.824Z,84.88
2023-02-04T05:55:51.503Z,84.56
2023-02-04T05:57:55.388Z,84.66
2023-02-04T05:59:57.975Z,84.68
2023-02-04T06:02:00.603Z,84.75
2023-02-04T06:04:03.290Z,84.48
2023-02-04T06:06:06.175Z,84.66
2023-02-04T06:08:08.734Z,84.38
2023-02-04T06:10:12.320Z,84.40
2023-02-04T06:12:14.902Z,84.47
2023-02-04T06:14:18.798Z,84.65
2023-02-04T06:16:21.484Z,84.66
2023-02-04T06:18:27.039Z,84.57
2023-02-04T06:20:29.999Z,84.60
2023-02-04T06:22:32.799Z,84.29
2023-02-04T06:24:37.367Z,84.53
2023-02-04T06:26:40.009Z,84.36
2023-02-04T06:28:42.588Z,84.36
2023-02-04T06:30:46.668Z,84.38
2023-02-04T06:32:49.331Z,84.40
2023-02-04T06:34:51.923Z,84.38
2023-02-04T06:36:54.469Z,84.44
2023-02-04T06:38:57.453Z,84.52
2023-02-04T06:40:59.993Z,84.55
2023-02-04T06:43:04.301Z,84.79
2023-02-04T06:45:08.364Z,84.52
2023-02-04T06:47:12.254Z,84.90
2023-02-04T06:49:14.804Z,84.90
2023-02-04T06:51:19.979Z,84.95
2023-02-04T06:53:22.716Z,84.84
2023-02-04T06:55:25.278Z,84.92
2023-02-04T06:57:27.917Z,84.69
2023-02-04T06:59:33.046Z,84.43
2023-02-04T07:01:35.633Z,84.40
2023-02-04T07:03:39.546Z,84.72
2023-02-04T07:05:42.137Z,84.75
2023-02-04T07:07:44.707Z,85.02
2023-02-04T07:09:47.352Z,84.88
2023-02-04T07:11:49.906Z,84.94
2023-02-04T07:13:52.459Z,85.09
2023-02-04T07:15:55.065Z,85.03
2023-02-04T07:17:57.630Z,85.00
2023-02-04T07:20:01.566Z,84.71
2023-02-04T07:22:04.193Z,84.73
2023-02-04T07:24:07.160Z,84.54
2023-02-04T07:26:09.714Z,84.18
2023-02-04T07:28:12.398Z,83.84
2023-02-04T07:30:15.376Z,83.65
2023-02-04T07:32:17.962Z,83.81
2023-02-04T07:34:20.714Z,83.94
2023-02-04T07:36:26.200Z,83.56
2023-02-04T07:38:28.807Z,83.11
2023-02-04T07:40:31.778Z,83.35
2023-02-04T07:42:34.758Z,83.10
2023-02-04T07:44:37.584Z,82.80
2023-02-04T07:46:40.196Z,82.88
2023-02-04T07:48:42.806Z,82.72
2023-02-04T07:50:45.419Z,82.81
2023-02-04T07:52:49.296Z,82.64
2023-02-04T07:54:52.464Z,82.66
2023-02-04T07:56:55.044Z,82.75
2023-02-04T07:58:57.604Z,82.63
2023-02-04T08:01:01.248Z,82.77
2023-02-04T08:03:03.798Z,83.04
2023-02-04T08:05:07.235Z,83.14
2023-02-04T08:07:09.790Z,83.20
2023-02-04T08:09:16.182Z,83.33
2023-02-04T08:11:18.809Z,83.42
2023-02-04T08:13:21.332Z,83.50
2023-02-04T08:15:23.943Z,83.55
2023-02-04T08:17:26.498Z,83.67
2023-02-04T08:19:29.066Z,83.86
2023-02-04T08:21:31.632Z,83.85
2023-02-04T08:23:34.321Z,83.70
2023-02-04T08:25:38.234Z,83.56
2023-02-04T08:27:40.874Z,83.76
2023-02-04T08:29:43.469Z,83.30
2023-02-04T08:31:47.709Z,83.35
2023-02-04T08:33:50.331Z,83.14
2023-02-04T08:35:55.213Z,83.22
2023-02-04T08:37:58.083Z,83.03
2023-02-04T08:40:00.729Z,82.61
2023-02-04T08:42:04.766Z,82.46
2023-02-04T08:44:07.462Z,82.45
2023-02-04T08:46:10.211Z,82.27
2023-02-04T08:48:12.803Z,81.97
2023-02-04T08:50:15.612Z,82.10
2023-02-04T08:52:18.987Z,81.98
2023-02-04T08:54:21.662Z,82.00
2023-02-04T08:56:24.187Z,82.01
2023-02-04T08:58:28.127Z,81.79
2023-02-04T09:00:31.542Z,81.65
2023-02-04T09:02:34.370Z,81.43
2023-02-04T09:04:36.967Z,81.33
2023-02-04T09:06:39.532Z,81.59
2023-02-04T09:08:42.105Z,81.47
2023-02-04T09:10:44.680Z,81.32
2023-02-04T09:12:47.323Z,81.39
2023-02-04T09:14:51.185Z,81.31
2023-02-04T09:16:53.753Z,80.01
2023-02-04T09:18:56.418Z,80.22
2023-02-04T09:21:02.162Z,80.30
2023-02-04T09:23:04.832Z,79.85
2023-02-04T09:25:08.399Z,79.88
2023-02-04T09:27:11.014Z,79.92
2023-02-04T09:29:13.617Z,79.78
2023-02-04T09:31:17.818Z,79.64
2023-02-04T09:33:20.486Z,79.50
2023-02-04T09:35:23.081Z,79.38
2023-02-04T09:37:27.041Z,79.37
2023-02-04T09:39:29.886Z,79.44
2023-02-04T09:41:33.929Z,79.30
2023-02-04T09:43:39.949Z,79.54
2023-02-04T09:45:42.661Z,79.15
2023-02-04T09:47:46.713Z,79.18
2023-02-04T09:49:49.247Z,79.16
2023-02-04T09:51:52.731Z,79.19
2023-02-04T09:54:03.650Z,79.08
2023-02-04T09:56:07.349Z,78.69
2023-02-04T09:58:16.368Z,78.51
2023-02-04T10:00:21.993Z,78.63
2023-02-04T10:02:27.067Z,78.50
2023-02-04T10:04:30.987Z,78.07
2023-02-04T10:06:33.733Z,77.92
2023-02-04T10:08:36.319Z,77.64
2023-02-04T10:10:40.322Z,77.38
2023-02-04T10:12:42.886Z,77.34
2023-02-04T10:14:45.759Z,76.74
2023-02-04T10:16:53.395Z,76.93
2023-02-04T10:18:57.023Z,76.60
2023-02-04T10:21:13.593Z,76.56
2023-02-04T10:23:16.219Z,75.98
2023-02-04T10:25:21.191Z,75.69
2023-02-04T10:27:23.712Z,75.92
2023-02-04T10:29:26.324Z,75.57
2023-02-04T10:31:32.019Z,75.50
2023-02-04T10:33:37.053Z,74.84
2023-02-04T10:35:46.758Z,72.95
2023-02-04T10:38:04.573Z,72.47
2023-02-04T10:40:07.815Z,72.41
2023-02-04T10:42:22.217Z,72.37
2023-02-04T10:44:28.791Z,71.15
2023-02-04T10:46:31.757Z,70.95
2023-02-04T10:48:41.338Z,69.70
2023-02-04T10:50:43.933Z,69.38
2023-02-04T10:52:50.737Z,69.04
2023-02-04T10:54:52.470Z,68.77
2023-02-04T10:56:54.894Z,68.95
2023-02-04T10:58:57.472Z,68.50
2023-02-04T11:01:00.169Z,68.39
2023-02-04T11:03:08.078Z,68.33
2023-02-04T11:05:19.566Z,67.67
2023-02-04T11:07:23.751Z,67.56
2023-02-04T11:09:27.719Z,67.46
2023-02-04T11:11:30.306Z,67.18
2023-02-04T11:13:42.452Z,67.01
2023-02-04T11:15:50.159Z,67.22
2023-02-04T11:18:03.950Z,66.37
2023-02-04T11:20:17.279Z,66.42
2023-02-04T11:22:25.378Z,66.82
2023-02-04T11:24:34.382Z,66.83
2023-02-04T11:26:40.089Z,66.85
2023-02-04T11:28:49.655Z,66.85
2023-02-04T11:31:00.505Z,66.44
2023-02-04T11:33:05.253Z,66.56
2023-02-04T11:35:22.826Z,66.56
2023-02-04T11:37:37.201Z,66.78
2023-02-04T11:39:43.338Z,66.79
2023-02-04T11:41:46.719Z,65.74
2023-02-04T11:43:51.857Z,65.30
2023-02-04T11:46:03.719Z,64.88
2023-02-04T11:48:14.154Z,64.63
2023-02-04T11:50:22.293Z,64.43
2023-02-04T11:52:24.881Z,64.26
2023-02-04T11:54:27.412Z,64.37
2023-02-04T11:56:31.527Z,63.02
2023-02-04T11:58:34.602Z,61.96
2023-02-04T12:00:38.232Z,62.64
2023-02-04T12:02:46.799Z,62.47
2023-02-04T12:04:58.313Z,62.87
2023-02-04T12:07:03.344Z,62.97
2023-02-04T12:09:07.402Z,62.89
2023-02-04T12:11:12.660Z,62.57
2023-02-04T12:13:24.261Z,61.97
2023-02-04T12:15:35.783Z,62.11
2023-02-04T12:17:38.788Z,61.57
2023-02-04T12:19:41.391Z,61.02
2023-02-04T12:21:44.500Z,60.96
2023-02-04T12:23:47.051Z,60.30
2023-02-04T12:25:50.647Z,59.96
2023-02-04T12:27:54.444Z,59.85
2023-02-04T12:29:58.351Z,59.94
2023-02-04T12:32:00.956Z,59.90
2023-02-04T12:34:03.676Z,61.01
2023-02-04T12:36:06.857Z,61.16
2023-02-04T12:38:10.262Z,61.40
2023-02-04T12:40:16.167Z,61.02
2023-02-04T12:42:18.706Z,60.83
2023-02-04T12:44:21.327Z,61.03
2023-02-04T12:46:25.487Z,61.34
2023-02-04T12:48:28.162Z,61.23
2023-02-04T12:50:34.048Z,61.05
2023-02-04T12:52:36.866Z,61.30
2023-02-04T12:54:39.419Z,61.06
2023-02-04T12:56:43.715Z,61.26
2023-02-04T12:58:46.278Z,61.06
2023-02-04T13:00:48.852Z,61.24
2023-02-04T13:02:54.755Z,60.92
2023-02-04T13:04:57.663Z,61.16
2023-02-04T13:07:01.564Z,61.19
2023-02-04T13:09:04.843Z,61.43
2023-02-04T13:11:07.450Z,61.54
2023-02-04T13:13:09.994Z,61.85
2023-02-04T13:15:12.573Z,61.48
2023-02-04T13:17:15.115Z,61.70
2023-02-04T13:19:19.024Z,61.32
2023-02-04T13:21:21.619Z,61.06
2023-02-04T13:23:24.180Z,61.17
2023-02-04T13:25:26.798Z,61.33
2023-02-04T13:27:29.633Z,61.43
2023-02-04T13:29:32.367Z,62.03
2023-02-04T13:31:35.049Z,62.30
2023-02-04T13:33:37.601Z,62.88
2023-02-04T13:35:41.473Z,63.24
2023-02-04T13:37:44.427Z,63.36
2023-02-04T13:39:46.981Z,63.97
2023-02-04T13:41:49.514Z,63.68
2023-02-04T13:43:52.218Z,64.00
2023-02-04T13:45:54.827Z,63.66
2023-02-04T13:47:57.450Z,63.94
2023-02-04T13:50:00.208Z,63.51
2023-02-04T13:52:04.138Z,63.44
2023-02-04T13:54:06.791Z,63.37
2023-02-04T13:56:09.791Z,63.26
2023-02-04T13:58:12.461Z,63.52
2023-02-04T14:00:16.145Z,63.44
2023-02-04T14:02:18.879Z,63.42
2023-02-04T14:04:21.502Z,63.82
2023-02-04T14:06:33.250Z,63.16
2023-02-04T14:08:37.490Z,62.79
2023-02-04T14:10:40.040Z,62.53
2023-02-04T14:12:42.688Z,62.54
2023-02-04T14:14:45.274Z,62.08
2023-02-04T14:16:47.938Z,61.68
2023-02-04T14:18:51.893Z,61.40
2023-02-04T14:20:54.466Z,61.82
2023-02-04T14:22:57.061Z,61.73
2023-02-04T14:25:00.999Z,61.30
2023-02-04T14:27:07.286Z,61.04
2023-02-04T14:29:11.149Z,61.10
2023-02-04T14:31:13.691Z,60.94
2023-02-04T14:33:18.088Z,60.08
2023-02-04T14:35:21.004Z,59.62
2023-02-04T14:37:25.568Z,59.83
2023-02-04T14:39:28.088Z,58.94
2023-02-04T14:41:32.158Z,58.13
2023-02-04T14:43:37.384Z,57.99
2023-02-04T14:45:40.900Z,56.91
2023-02-04T14:47:43.579Z,55.88
2023-02-04T14:49:46.147Z,55.08
2023-02-04T14:51:48.720Z,55.71
2023-02-04T14:53:51.341Z,55.32
2023-02-04T14:55:53.919Z,55.28
2023-02-04T14:57:57.796Z,55.13
2023-02-04T15:00:00.374Z,55.14
2023-02-04T15:02:02.942Z,55.05
2023-02-04T15:04:05.702Z,55.30
2023-02-04T15:06:08.503Z,55.69
2023-02-04T15:08:11.138Z,56.16
2023-02-04T15:10:15.364Z,56.37
2023-02-04T15:12:18.103Z,56.51
2023-02-04T15:14:22.584Z,56.34
2023-02-04T15:16:25.175Z,56.92
2023-02-04T15:18:29.030Z,57.23
2023-02-04T15:20:31.996Z,57.33
2023-02-04T15:22:34.750Z,57.90
2023-02-04T15:24:37.371Z,57.82
2023-02-04T15:26:40.000Z,58.10
2023-02-04T15:28:42.610Z,58.34
2023-02-04T15:30:46.604Z,58.50
2023-02-04T15:32:49.248Z,58.38
2023-02-04T15:34:51.817Z,58.71
2023-02-04T15:36:54.443Z,58.90
2023-02-04T15:38:56.986Z,59.04
2023-02-04T15:40:59.551Z,59.27
2023-02-04T15:43:02.140Z,59.57
2023-02-04T15:45:05.272Z,59.69
2023-02-04T15:47:09.196Z,59.81
2023-02-04T15:49:11.759Z,60.31
2023-02-04T15:51:14.306Z,60.00
2023-02-04T15:53:16.983Z,60.55
2023-02-04T15:55:19.568Z,60.57
2023-02-04T15:57:22.180Z,61.01
2023-02-04T15:59:24.846Z,61.31
2023-02-04T16:01:27.436Z,61.45
2023-02-04T16:03:31.389Z,61.85
2023-02-04T16:05:33.910Z,61.96
2023-02-04T16:07:36.499Z,62.24
2023-02-04T16:09:39.115Z,62.41
2023-02-04T16:11:41.677Z,62.65
2023-02-04T16:13:44.285Z,62.63
2023-02-04T16:15:46.885Z,62.91
2023-02-04T16:17:49.526Z,63.23
2023-02-04T16:19:53.418Z,63.49
2023-02-04T16:21:56.286Z,63.67
2023-02-04T16:23:58.875Z,63.69
2023-02-04T16:26:01.428Z,63.79
2023-02-04T16:28:04.193Z,64.00
2023-02-04T16:30:07.851Z,64.32
2023-02-04T16:32:10.435Z,64.45
2023-02-04T16:34:12.991Z,64.58
2023-02-04T16:36:18.513Z,65.15
2023-02-04T16:38:21.329Z,64.89
2023-02-04T16:40:23.853Z,65.12
2023-02-04T16:42:26.504Z,65.22
2023-02-04T16:44:29.775Z,65.39
2023-02-04T16:46:33.847Z,65.41
2023-02-04T16:48:37.164Z,65.45
2023-02-04T16:50:39.733Z,65.66
2023-02-04T16:52:43.617Z,65.62
2023-02-04T16:54:46.238Z,65.83
2023-02-04T16:56:48.766Z,66.00
2023-02-04T16:58:51.358Z,65.95
2023-02-04T17:00:54.370Z,65.95
2023-02-04T17:02:57.156Z,66.15
2023-02-04T17:04:59.798Z,66.24
2023-02-04T17:07:02.497Z,66.32
2023-02-04T17:09:06.564Z,66.52
2023-02-04T17:11:26.849Z,66.77
2023-02-04T17:13:29.566Z,66.91
2023-02-04T17:15:32.535Z,67.09
2023-02-04T17:17:35.354Z,67.13
2023-02-04T17:19:37.890Z,67.38
2023-02-04T17:21:40.552Z,67.31
2023-02-04T17:23:45.621Z,67.53
2023-02-04T17:25:49.953Z,67.61
2023-02-04T17:27:53.421Z,67.65
2023-02-04T17:29:56.102Z,67.46
2023-02-04T17:31:58.674Z,67.52
2023-02-04T17:34:01.558Z,67.56
2023-02-04T17:36:05.231Z,67.79
2023-02-04T17:38:07.793Z,67.62
2023-02-04T17:40:13.445Z,67.68
2023-02-04T17:42:17.348Z,67.82
2023-02-04T17:44:23.741Z,67.93
2023-02-04T17:46:27.539Z,67.84
2023-02-04T17:48:30.714Z,67.91
2023-02-04T17:52:43.891Z,67.96
2023-02-04T17:54:46.433Z,68.00
2023-02-04T17:56:49.045Z,67.98
2023-02-04T17:58:52.972Z,68.12
2023-02-04T18:00:57.740Z,68.13
2023-02-04T18:03:00.660Z,68.15
2023-02-04T18:05:14.666Z,68.01
2023-02-04T18:07:17.257Z,67.73
2023-02-04T18:09:19.958Z,67.72
2023-02-04T18:11:27.276Z,67.68
2023-02-04T18:13:32.744Z,67.34
2023-02-04T18:15:37.120Z,67.39
2023-02-04T18:17:39.839Z,67.40
2023-02-04T18:19:44.915Z,67.30
2023-02-04T18:21:47.537Z,67.35
2023-02-04T18:24:01.358Z,67.33
2023-02-04T18:26:12.460Z,67.18
2023-02-04T18:28:17.905Z,67.21
2023-02-04T18:30:22.686Z,67.20
2023-02-04T18:32:34.392Z,67.24
2023-02-04T18:34:40.291Z,67.38
2023-02-04T18:36:42.899Z,67.52
2023-02-04T18:38:45.896Z,67.62
2023-02-04T18:40:49.327Z,67.64
2023-02-04T18:43:01.886Z,67.73
2023-02-04T18:45:19.889Z,67.62
2023-02-04T18:47:31.581Z,67.92
2023-02-04T18:49:38.115Z,67.69
2023-02-04T18:51:41.464Z,67.69
2023-02-04T18:53:44.011Z,67.72
2023-02-04T18:55:48.380Z,67.71
2023-02-04T18:57:50.966Z,67.80
2023-02-04T18:59:54.966Z,67.86
2023-02-04T19:01:57.680Z,67.84
2023-02-04T19:04:03.446Z,67.80
2023-02-04T19:06:25.013Z,67.77
2023-02-04T19:08:30.243Z,67.90
2023-02-04T19:10:34.739Z,67.79
2023-02-04T19:12:37.492Z,67.90
2023-02-04T19:14:41.850Z,68.10
2023-02-04T19:16:45.309Z,68.03
2023-02-04T19:18:48.418Z,68.10
2023-02-04T19:20:52.989Z,68.40
2023-02-04T19:22:56.891Z,68.20
2023-02-04T19:25:02.935Z,68.31
2023-02-04T19:27:29.095Z,68.55
2023-02-04T19:29:39.553Z,68.29
2023-02-04T19:31:42.819Z,68.13
2023-02-04T19:33:46.261Z,68.63
2023-02-04T19:35:49.538Z,68.46
2023-02-04T19:37:56.364Z,68.43
2023-02-04T19:39:58.945Z,68.33
2023-02-04T19:42:02.167Z,68.31
2023-02-04T19:44:41.753Z,68.32
2023-02-04T19:46:45.261Z,68.46
2023-02-04T19:48:48.235Z,68.44
2023-02-04T19:50:52.582Z,68.55
2023-02-04T19:53:01.902Z,68.43
2023-02-04T19:55:44.202Z,68.37
2023-02-04T19:57:47.772Z,68.69
2023-02-04T19:59:50.357Z,68.72
2023-02-04T20:01:59.171Z,68.48
2023-02-04T20:04:02.912Z,68.79
2023-02-04T20:06:26.384Z,68.39
2023-02-04T20:08:45.875Z,68.15
2023-02-04T20:10:48.417Z,67.94
2023-02-04T20:12:52.288Z,67.90
2023-02-04T20:14:57.664Z,68.12
2023-02-04T20:17:03.382Z,68.43
2023-02-04T20:19:18.979Z,68.93
2023-02-04T20:21:21.570Z,68.59
2023-02-04T20:23:29.174Z,68.87
2023-02-04T20:25:43.642Z,68.91
2023-02-04T20:27:55.204Z,68.84
2023-02-04T20:30:02.838Z,68.58
2023-02-04T20:32:18.284Z,68.50
2023-02-04T20:34:23.865Z,68.65
2023-02-04T20:36:40.777Z,68.76
2023-02-04T20:38:43.430Z,69.38
2023-02-04T20:40:47.592Z,69.07
2023-02-04T20:42:52.879Z,69.36
2023-02-04T20:44:56.887Z,69.42
2023-02-04T20:47:11.774Z,69.40
2023-02-04T20:49:22.973Z,69.14
2023-02-04T20:51:26.933Z,69.33
2023-02-04T20:53:38.137Z,69.36
2023-02-04T20:55:40.758Z,69.07
2023-02-04T20:57:44.663Z,68.28
2023-02-04T20:59:49.447Z,67.91
2023-02-04T21:01:52.770Z,69.25
2023-02-04T21:03:56.216Z,69.56
2023-02-04T21:06:00.970Z,69.68
2023-02-04T21:08:05.666Z,70.38
2023-02-04T21:10:08.942Z,70.51
2023-02-04T21:12:12.090Z,70.13
2023-02-04T21:14:16.147Z,70.03
2023-02-04T21:16:19.580Z,69.63
2023-02-04T21:18:22.303Z,69.90
2023-02-04T21:20:25.438Z,69.63
2023-02-04T21:22:27.974Z,69.73
2023-02-04T21:24:31.712Z,70.17
2023-02-04T21:26:35.129Z,70.80
2023-02-04T21:28:37.786Z,70.66
2023-02-04T21:30:42.022Z,70.13
2023-02-04T21:32:44.983Z,70.68
2023-02-04T21:34:47.616Z,70.13
2023-02-04T21:36:50.245Z,70.22
2023-02-04T21:38:52.796Z,70.41
2023-02-04T21:40:55.344Z,70.56
2023-02-04T21:42:58.014Z,70.88
2023-02-04T21:45:01.798Z,71.30
2023-02-04T21:47:06.773Z,70.74
2023-02-04T21:49:09.331Z,70.85
2023-02-04T21:51:12.747Z,70.82
2023-02-04T21:53:15.485Z,70.77
2023-02-04T21:55:21.367Z,70.75
2023-02-04T21:57:24.007Z,71.13
2023-02-04T21:59:26.600Z,71.06
2023-02-04T22:01:29.232Z,71.14
2023-02-04T22:03:33.310Z,70.71
2023-02-04T22:05:36.134Z,70.93
2023-02-04T22:07:40.220Z,70.96
2023-02-04T22:09:42.782Z,71.20
2023-02-04T22:11:48.174Z,71.13
2023-02-04T22:13:50.759Z,70.98
2023-02-04T22:15:53.347Z,70.57
2023-02-04T22:17:56.889Z,70.32
2023-02-04T22:20:00.819Z,70.37
2023-02-04T22:22:03.445Z,70.61
2023-02-04T22:24:06.603Z,70.70
2023-02-04T22:26:09.496Z,70.54
2023-02-04T22:28:12.070Z,70.82
2023-02-04T22:30:16.686Z,71.29
2023-02-04T22:32:19.285Z,71.14
2023-02-04T22:34:22.224Z,71.11
2023-02-04T22:36:26.216Z,70.89
2023-02-04T22:38:28.797Z,71.10
2023-02-04T22:40:31.399Z,70.95
2023-02-04T22:42:33.948Z,71.73
2023-02-04T22:44:36.591Z,71.97
2023-02-04T22:46:39.208Z,72.31
2023-02-04T22:48:41.777Z,72.30
2023-02-04T22:50:44.339Z,72.11
2023-02-04T22:52:48.260Z,72.42
2023-02-04T22:54:50.864Z,72.25
2023-02-04T22:56:53.411Z,72.16
2023-02-04T22:58:55.978Z,73.03
2023-02-04T23:00:58.617Z,72.73
2023-02-04T23:03:01.266Z,73.16
2023-02-04T23:05:04.074Z,73.16
2023-02-04T23:07:08.435Z,72.25
2023-02-04T23:09:12.583Z,72.96
2023-02-04T23:11:15.748Z,72.72
2023-02-04T23:13:19.141Z,73.00
2023-02-04T23:15:21.970Z,73.15
2023-02-04T23:17:24.601Z,72.94
2023-02-04T23:19:27.160Z,72.89
2023-02-04T23:21:29.894Z,72.70
2023-02-04T23:23:32.534Z,72.58
2023-02-04T23:25:37.233Z,72.42
2023-02-04T23:27:40.057Z,72.63
2023-02-04T23:29:42.962Z,72.66
2023-02-04T23:31:45.647Z,72.51
2023-02-04T23:33:48.252Z,72.16
2023-02-04T23:35:51.119Z,72.71
2023-02-04T23:37:53.738Z,72.87
2023-02-04T23:39:56.289Z,72.93
2023-02-04T23:42:00.214Z,73.13
2023-02-04T23:44:02.766Z,73.23
2023-02-04T23:46:05.556Z,72.88
2023-02-04T23:48:08.291Z,73.07
2023-02-04T23:50:11.304Z,72.62
2023-02-04T23:52:13.879Z,72.51
2023-02-04T23:54:16.531Z,73.21
2023-02-04T23:56:19.089Z,72.28
2023-02-04T23:58:23.039Z,72.43
